Terminal Aerodrome Forecast
Issued by NWS Grand Rapids, MI

Home | Current Version | Previous Version | Text Only | Print | Product List | Glossary On
Versions: 1 2 3 4 5 6 7 8 9 10 11
000
FTUS43 KGRR 251140
TAFGRR
TAF
KGRR 251140Z 2512/2612 10008KT P6SM BKN200
     FM251800 14012G20KT P6SM OVC050
     FM252300 12009KT P6SM OVC050
     FM260900 15013KT 4SM BR OVC035=

USA.gov is the U.S. government's official web portal to all federal, state and local government web resources and services.